sensor_id;sensor_type;location;lat;lon;timestamp;temperature;humidity
20504;DHT22;10410;51.046;6.980;2023-09-07T00:00:43;18.20;99.90
20504;DHT22;10410;51.046;6.980;2023-09-07T00:07:43;18.10;99.90
20504;DHT22;10410;51.046;6.980;2023-09-07T00:14:44;17.90;99.90
20504;DHT22;10410;51.046;6.980;2023-09-07T00:21:45;17.90;99.90
20504;DHT22;10410;51.046;6.980;2023-09-07T00:28:46;17.70;99.90
20504;DHT22;10410;51.046;6.980;2023-09-07T00:35:46;17.60;99.90
20504;DHT22;10410;51.046;6.980;2023-09-07T00:42:47;17.50;99.90
20504;DHT22;10410;51.046;6.980;2023-09-07T00:49:48;17.40;99.90
20504;DHT22;10410;51.046;6.980;2023-09-07T00:56:48;17.30;99.90
20504;DHT22;10410;51.046;6.980;2023-09-07T01:03:50;17.20;99.90
20504;DHT22;10410;51.046;6.980;2023-09-07T01:10:50;17.10;99.90
20504;DHT22;10410;51.046;6.980;2023-09-07T01:17:51;17.00;99.90
20504;DHT22;10410;51.046;6.980;2023-09-07T01:24:52;16.90;99.90
20504;DHT22;10410;51.046;6.980;2023-09-07T01:31:53;16.80;99.90
20504;DHT22;10410;51.046;6.980;2023-09-07T01:38:53;16.70;99.90
20504;DHT22;10410;51.046;6.980;2023-09-07T01:45:54;16.60;99.90
20504;DHT22;10410;51.046;6.980;2023-09-07T01:52:54;16.50;99.90
20504;DHT22;10410;51.046;6.980;2023-09-07T01:59:55;16.40;99.90
20504;DHT22;10410;51.046;6.980;2023-09-07T02:06:55;16.30;99.90
20504;DHT22;10410;51.046;6.980;2023-09-07T02:13:56;16.20;99.90
20504;DHT22;10410;51.046;6.980;2023-09-07T02:21:02;16.10;99.90
20504;DHT22;10410;51.046;6.980;2023-09-07T02:28:02;16.00;99.90
20504;DHT22;10410;51.046;6.980;2023-09-07T02:35:03;16.00;99.90
20504;DHT22;10410;51.046;6.980;2023-09-07T02:42:04;16.00;99.90
20504;DHT22;10410;51.046;6.980;2023-09-07T02:49:06;16.00;99.90
20504;DHT22;10410;51.046;6.980;2023-09-07T02:56:06;16.00;99.90
20504;DHT22;10410;51.046;6.980;2023-09-07T03:03:07;15.90;99.90
20504;DHT22;10410;51.046;6.980;2023-09-07T03:10:08;15.90;99.90
20504;DHT22;10410;51.046;6.980;2023-09-07T03:17:09;15.90;99.90
20504;DHT22;10410;51.046;6.980;2023-09-07T03:24:10;15.90;99.90
20504;DHT22;10410;51.046;6.980;2023-09-07T03:31:10;15.80;99.90
20504;DHT22;10410;51.046;6.980;2023-09-07T03:38:11;15.70;99.90
20504;DHT22;10410;51.046;6.980;2023-09-07T03:45:11;15.80;99.90
20504;DHT22;10410;51.046;6.980;2023-09-07T03:52:12;15.70;99.90
20504;DHT22;10410;51.046;6.980;2023-09-07T03:59:12;15.70;99.90
20504;DHT22;10410;51.046;6.980;2023-09-07T04:06:13;15.60;99.90
20504;DHT22;10410;51.046;6.980;2023-09-07T04:13:13;15.50;99.90
20504;DHT22;10410;51.046;6.980;2023-09-07T04:20:14;15.50;99.90
20504;DHT22;10410;51.046;6.980;2023-09-07T04:27:15;15.40;99.90
20504;DHT22;10410;51.046;6.980;2023-09-07T04:34:16;15.40;99.90
20504;DHT22;10410;51.046;6.980;2023-09-07T04:41:17;15.40;99.90
20504;DHT22;10410;51.046;6.980;2023-09-07T04:48:18;15.30;99.90
20504;DHT22;10410;51.046;6.980;2023-09-07T04:55:18;15.20;99.90
20504;DHT22;10410;51.046;6.980;2023-09-07T05:02:19;15.20;99.90
20504;DHT22;10410;51.046;6.980;2023-09-07T05:09:19;15.10;99.90
20504;DHT22;10410;51.046;6.980;2023-09-07T05:16:20;15.10;99.90
20504;DHT22;10410;51.046;6.980;2023-09-07T05:23:22;15.20;99.90
20504;DHT22;10410;51.046;6.980;2023-09-07T05:30:23;15.20;99.90
20504;DHT22;10410;51.046;6.980;2023-09-07T05:37:23;15.20;99.90
20504;DHT22;10410;51.046;6.980;2023-09-07T05:44:24;15.20;99.90
20504;DHT22;10410;51.046;6.980;2023-09-07T05:51:24;15.20;99.90
20504;DHT22;10410;51.046;6.980;2023-09-07T05:58:25;15.20;99.90
20504;DHT22;10410;51.046;6.980;2023-09-07T06:05:25;15.30;99.90
20504;DHT22;10410;51.046;6.980;2023-09-07T06:12:26;15.50;99.90
20504;DHT22;10410;51.046;6.980;2023-09-07T06:19:26;15.70;99.90
20504;DHT22;10410;51.046;6.980;2023-09-07T06:26:26;15.90;99.90
20504;DHT22;10410;51.046;6.980;2023-09-07T06:33:27;16.20;99.90
20504;DHT22;10410;51.046;6.980;2023-09-07T06:40:27;16.40;99.90
20504;DHT22;10410;51.046;6.980;2023-09-07T06:47:30;16.70;99.90
20504;DHT22;10410;51.046;6.980;2023-09-07T06:54:31;17.00;99.90
20504;DHT22;10410;51.046;6.980;2023-09-07T07:01:32;17.30;99.90
20504;DHT22;10410;51.046;6.980;2023-09-07T07:08:32;17.50;99.90
20504;DHT22;10410;51.046;6.980;2023-09-07T07:15:33;17.80;99.90
20504;DHT22;10410;51.046;6.980;2023-09-07T07:22:53;18.10;99.90
20504;DHT22;10410;51.046;6.980;2023-09-07T07:29:53;18.40;99.90
20504;DHT22;10410;51.046;6.980;2023-09-07T07:36:54;18.70;99.90
20504;DHT22;10410;51.046;6.980;2023-09-07T07:43:55;19.00;99.90
20504;DHT22;10410;51.046;6.980;2023-09-07T07:50:57;19.40;99.90
20504;DHT22;10410;51.046;6.980;2023-09-07T07:57:57;19.80;99.90
20504;DHT22;10410;51.046;6.980;2023-09-07T08:04:58;20.20;99.90
20504;DHT22;10410;51.046;6.980;2023-09-07T08:11:59;20.60;99.90
20504;DHT22;10410;51.046;6.980;2023-09-07T08:19:04;20.90;99.90
20504;DHT22;10410;51.046;6.980;2023-09-07T08:26:05;21.20;99.90
20504;DHT22;10410;51.046;6.980;2023-09-07T08:33:06;21.60;99.90
20504;DHT22;10410;51.046;6.980;2023-09-07T08:40:08;22.00;99.90
20504;DHT22;10410;51.046;6.980;2023-09-07T08:47:09;22.40;99.90
20504;DHT22;10410;51.046;6.980;2023-09-07T08:54:10;22.80;99.90
20504;DHT22;10410;51.046;6.980;2023-09-07T09:01:12;23.20;99.90
20504;DHT22;10410;51.046;6.980;2023-09-07T09:08:13;23.50;99.90
20504;DHT22;10410;51.046;6.980;2023-09-07T09:15:13;23.80;99.90
20504;DHT22;10410;51.046;6.980;2023-09-07T09:22:14;23.90;99.90
20504;DHT22;10410;51.046;6.980;2023-09-07T09:29:14;24.20;99.90
20504;DHT22;10410;51.046;6.980;2023-09-07T09:36:15;24.40;99.90
20504;DHT22;10410;51.046;6.980;2023-09-07T09:43:19;24.70;99.90
20504;DHT22;10410;51.046;6.980;2023-09-07T09:50:20;25.00;99.90
20504;DHT22;10410;51.046;6.980;2023-09-07T09:57:20;25.30;99.90
20504;DHT22;10410;51.046;6.980;2023-09-07T10:04:22;25.60;99.90
20504;DHT22;10410;51.046;6.980;2023-09-07T10:11:29;25.80;99.90
20504;DHT22;10410;51.046;6.980;2023-09-07T10:18:35;26.00;99.90
20504;DHT22;10410;51.046;6.980;2023-09-07T10:25:36;26.30;99.90
20504;DHT22;10410;51.046;6.980;2023-09-07T10:32:40;26.40;99.90
20504;DHT22;10410;51.046;6.980;2023-09-07T10:39:44;26.60;99.90
20504;DHT22;10410;51.046;6.980;2023-09-07T10:46:45;26.90;99.90
20504;DHT22;10410;51.046;6.980;2023-09-07T10:53:46;27.00;99.90
20504;DHT22;10410;51.046;6.980;2023-09-07T11:00:46;27.20;99.90
20504;DHT22;10410;51.046;6.980;2023-09-07T11:07:47;27.40;99.90
20504;DHT22;10410;51.046;6.980;2023-09-07T11:14:48;27.50;99.90
20504;DHT22;10410;51.046;6.980;2023-09-07T11:21:49;27.90;99.90
20504;DHT22;10410;51.046;6.980;2023-09-07T11:28:51;28.00;99.90
20504;DHT22;10410;51.046;6.980;2023-09-07T11:35:52;28.30;99.90
20504;DHT22;10410;51.046;6.980;2023-09-07T11:42:55;28.50;99.90
20504;DHT22;10410;51.046;6.980;2023-09-07T11:49:56;28.70;99.90
20504;DHT22;10410;51.046;6.980;2023-09-07T11:56:57;29.00;99.90
20504;DHT22;10410;51.046;6.980;2023-09-07T12:03:57;29.10;99.90
20504;DHT22;10410;51.046;6.980;2023-09-07T12:10:57;29.30;99.90
20504;DHT22;10410;51.046;6.980;2023-09-07T12:17:58;29.40;99.90
20504;DHT22;10410;51.046;6.980;2023-09-07T12:24:58;29.60;99.60
20504;DHT22;10410;51.046;6.980;2023-09-07T12:32:14;29.80;99.30
20504;DHT22;10410;51.046;6.980;2023-09-07T12:39:15;29.90;98.20
20504;DHT22;10410;51.046;6.980;2023-09-07T12:46:15;30.20;97.80
20504;DHT22;10410;51.046;6.980;2023-09-07T12:53:16;30.50;97.30
20504;DHT22;10410;51.046;6.980;2023-09-07T13:00:17;30.80;96.50
20504;DHT22;10410;51.046;6.980;2023-09-07T13:07:19;31.10;96.50
20504;DHT22;10410;51.046;6.980;2023-09-07T13:14:19;31.40;96.10
20504;DHT22;10410;51.046;6.980;2023-09-07T13:21:19;31.70;95.00
20504;DHT22;10410;51.046;6.980;2023-09-07T13:28:20;32.00;94.60
20504;DHT22;10410;51.046;6.980;2023-09-07T13:35:20;32.20;93.20
20504;DHT22;10410;51.046;6.980;2023-09-07T13:42:21;32.60;92.20
20504;DHT22;10410;51.046;6.980;2023-09-07T13:49:21;32.80;91.40
20504;DHT22;10410;51.046;6.980;2023-09-07T13:56:22;33.10;90.50
20504;DHT22;10410;51.046;6.980;2023-09-07T14:03:22;33.40;89.00
20504;DHT22;10410;51.046;6.980;2023-09-07T14:10:23;33.40;87.80
20504;DHT22;10410;51.046;6.980;2023-09-07T14:17:23;33.60;85.30
20504;DHT22;10410;51.046;6.980;2023-09-07T14:24:24;33.70;83.70
20504;DHT22;10410;51.046;6.980;2023-09-07T14:31:25;33.90;81.70
20504;DHT22;10410;51.046;6.980;2023-09-07T14:38:26;34.00;80.80
20504;DHT22;10410;51.046;6.980;2023-09-07T14:45:27;34.10;80.10
20504;DHT22;10410;51.046;6.980;2023-09-07T14:52:27;34.30;77.10
20504;DHT22;10410;51.046;6.980;2023-09-07T14:59:28;34.20;75.30
20504;DHT22;10410;51.046;6.980;2023-09-07T15:06:28;34.50;74.00
20504;DHT22;10410;51.046;6.980;2023-09-07T15:13:32;34.90;73.20
20504;DHT22;10410;51.046;6.980;2023-09-07T15:20:33;35.10;70.80
20504;DHT22;10410;51.046;6.980;2023-09-07T15:27:33;35.10;69.70
20504;DHT22;10410;51.046;6.980;2023-09-07T15:34:33;35.00;68.90
20504;DHT22;10410;51.046;6.980;2023-09-07T15:41:34;34.80;69.20
20504;DHT22;10410;51.046;6.980;2023-09-07T15:48:34;34.30;67.60
20504;DHT22;10410;51.046;6.980;2023-09-07T15:55:35;34.00;67.60
20504;DHT22;10410;51.046;6.980;2023-09-07T16:02:36;33.70;68.20
20504;DHT22;10410;51.046;6.980;2023-09-07T16:09:36;33.50;69.20
20504;DHT22;10410;51.046;6.980;2023-09-07T16:16:37;33.10;69.70
20504;DHT22;10410;51.046;6.980;2023-09-07T16:23:37;32.80;70.50
20504;DHT22;10410;51.046;6.980;2023-09-07T16:30:38;32.40;71.30
20504;DHT22;10410;51.046;6.980;2023-09-07T16:37:38;32.10;71.90
20504;DHT22;10410;51.046;6.980;2023-09-07T16:44:40;31.70;72.70
20504;DHT22;10410;51.046;6.980;2023-09-07T16:51:41;31.30;73.40
20504;DHT22;10410;51.046;6.980;2023-09-07T16:58:43;30.90;73.90
20504;DHT22;10410;51.046;6.980;2023-09-07T17:06:03;30.70;74.70
20504;DHT22;10410;51.046;6.980;2023-09-07T17:13:04;30.40;75.70
20504;DHT22;10410;51.046;6.980;2023-09-07T17:20:05;30.10;76.40
20504;DHT22;10410;51.046;6.980;2023-09-07T17:27:05;29.90;77.40
20504;DHT22;10410;51.046;6.980;2023-09-07T17:34:06;29.60;78.20
20504;DHT22;10410;51.046;6.980;2023-09-07T17:41:07;29.30;79.10
20504;DHT22;10410;51.046;6.980;2023-09-07T17:48:10;29.00;79.90
20504;DHT22;10410;51.046;6.980;2023-09-07T17:55:11;28.80;80.60
20504;DHT22;10410;51.046;6.980;2023-09-07T18:02:22;28.60;81.40
20504;DHT22;10410;51.046;6.980;2023-09-07T18:09:23;28.40;82.30
20504;DHT22;10410;51.046;6.980;2023-09-07T18:16:25;28.20;83.10
20504;DHT22;10410;51.046;6.980;2023-09-07T18:23:26;28.00;84.00
20504;DHT22;10410;51.046;6.980;2023-09-07T18:30:27;27.70;85.00
20504;DHT22;10410;51.046;6.980;2023-09-07T18:37:28;27.30;85.90
20504;DHT22;10410;51.046;6.980;2023-09-07T18:44:28;27.00;86.70
20504;DHT22;10410;51.046;6.980;2023-09-07T18:51:28;26.80;87.20
20504;DHT22;10410;51.046;6.980;2023-09-07T18:58:29;26.60;87.60
20504;DHT22;10410;51.046;6.980;2023-09-07T19:05:30;26.40;88.10
20504;DHT22;10410;51.046;6.980;2023-09-07T19:12:31;26.20;88.50
20504;DHT22;10410;51.046;6.980;2023-09-07T19:19:31;26.00;89.10
20504;DHT22;10410;51.046;6.980;2023-09-07T19:26:35;25.80;89.60
20504;DHT22;10410;51.046;6.980;2023-09-07T19:33:36;25.60;90.00
20504;DHT22;10410;51.046;6.980;2023-09-07T19:40:37;25.40;90.30
20504;DHT22;10410;51.046;6.980;2023-09-07T19:47:37;25.20;90.50
20504;DHT22;10410;51.046;6.980;2023-09-07T19:54:38;25.10;90.90
20504;DHT22;10410;51.046;6.980;2023-09-07T20:01:56;24.80;91.20
20504;DHT22;10410;51.046;6.980;2023-09-07T20:08:57;24.70;91.60
20504;DHT22;10410;51.046;6.980;2023-09-07T20:15:58;24.50;91.80
20504;DHT22;10410;51.046;6.980;2023-09-07T20:22:59;24.30;92.10
20504;DHT22;10410;51.046;6.980;2023-09-07T20:30:00;24.10;92.40
20504;DHT22;10410;51.046;6.980;2023-09-07T20:37:00;23.90;92.70
20504;DHT22;10410;51.046;6.980;2023-09-07T20:44:01;23.70;92.90
20504;DHT22;10410;51.046;6.980;2023-09-07T20:51:01;23.50;93.20
20504;DHT22;10410;51.046;6.980;2023-09-07T20:58:05;23.30;93.50
20504;DHT22;10410;51.046;6.980;2023-09-07T21:05:09;23.10;93.70
20504;DHT22;10410;51.046;6.980;2023-09-07T21:12:09;23.00;94.10
20504;DHT22;10410;51.046;6.980;2023-09-07T21:19:09;22.80;94.20
20504;DHT22;10410;51.046;6.980;2023-09-07T21:26:10;22.70;94.40
20504;DHT22;10410;51.046;6.980;2023-09-07T21:33:10;22.60;94.70
20504;DHT22;10410;51.046;6.980;2023-09-07T21:40:11;22.40;95.00
20504;DHT22;10410;51.046;6.980;2023-09-07T21:47:11;22.30;95.20
20504;DHT22;10410;51.046;6.980;2023-09-07T21:54:12;22.20;95.50
20504;DHT22;10410;51.046;6.980;2023-09-07T22:01:12;22.00;95.70
20504;DHT22;10410;51.046;6.980;2023-09-07T22:08:12;21.90;96.00
20504;DHT22;10410;51.046;6.980;2023-09-07T22:15:13;21.70;96.20
20504;DHT22;10410;51.046;6.980;2023-09-07T22:22:14;21.60;96.50
20504;DHT22;10410;51.046;6.980;2023-09-07T22:29:14;21.40;96.80
20504;DHT22;10410;51.046;6.980;2023-09-07T22:36:15;21.20;97.10
20504;DHT22;10410;51.046;6.980;2023-09-07T22:43:15;21.10;97.30
20504;DHT22;10410;51.046;6.980;2023-09-07T22:50:16;20.90;97.50
20504;DHT22;10410;51.046;6.980;2023-09-07T22:57:17;20.80;97.60
20504;DHT22;10410;51.046;6.980;2023-09-07T23:04:17;20.70;97.80
20504;DHT22;10410;51.046;6.980;2023-09-07T23:11:18;20.70;98.10
20504;DHT22;10410;51.046;6.980;2023-09-07T23:18:19;20.50;98.30
20504;DHT22;10410;51.046;6.980;2023-09-07T23:25:20;20.40;98.60
20504;DHT22;10410;51.046;6.980;2023-09-07T23:32:20;20.30;98.80
20504;DHT22;10410;51.046;6.980;2023-09-07T23:39:22;20.20;99.10
20504;DHT22;10410;51.046;6.980;2023-09-07T23:46:22;20.00;99.20
20504;DHT22;10410;51.046;6.980;2023-09-07T23:53:24;19.90;99.50
